Terminal Aerodrome Forecast
Issued by NWS

Home | Current Version | Previous Version | Text Only | Print | Product List | Glossary Off
Versions: 1 2 3 4 5 6 7 8 9 10 11 12 13 14 15 16 17 18 19 20 21 22 23 24 25 26 27 28 29 30 31 32 33

000
FTUS43 KLOT 230921 AAB
TAFMDW
TAF AMD
KMDW 230921Z 2309/2406 26003KT P6SM SCT030
      TEMPO 2309/2312 BKN030
     FM231400 12005KT P6SM SCT040 SCT250
     FM231600 12005KT P6SM VCTS SCT040 BKN070CB BKN250
     FM232000 11008KT P6SM SCT050 BKN250
     FM240200 14006KT P6SM SCT040 BKN150=

USA.gov is the U.S. government's official web portal to all federal, state and local government web resources and services.